Time;durP1;ratioP1;P1;durP2;ratioP2;P2;SDS_P1;SDS_P2;PMS_P1;PMS_P2;Temp;Humidity;BMP_temperature;BMP_pressure;BME280_temperature;BME280_humidity;BME280_pressure;Samples;Min_cycle;Max_cycle;Signal;HPM_P1;HPM_P2
2023/10/17 00:01:35;;;;;;;5.22;1.73;;;8.90;92.90;;;;;;4249087;27;20043;-56
2023/10/17 00:03:40;;;;;;;10.02;2.58;;;8.90;93.00;;;;;;4230659;28;20047;-56
2023/10/17 00:05:43;;;;;;;6.47;2.30;;;8.80;93.10;;;;;;4230539;28;20048;-55
2023/10/17 00:07:46;;;;;;;5.25;1.88;;;8.80;93.20;;;;;;4248957;27;20063;-59
2023/10/17 00:09:49;;;;;;;5.68;2.40;;;8.70;93.30;;;;;;4230665;28;20481;-59
2023/10/17 00:14:11;;;;;;;5.45;2.08;;;8.70;93.40;;;;;;4248400;27;20127;-58
2023/10/17 00:16:13;;;;;;;8.73;2.10;;;8.60;93.50;;;;;;4247716;27;20039;-58
2023/10/17 00:18:17;;;;;;;6.95;2.28;;;8.60;93.70;;;;;;4248583;27;20047;-58
2023/10/17 00:20:25;;;;;;;6.25;2.35;;;8.50;93.70;;;;;;4248421;27;20058;-58
2023/10/17 00:22:28;;;;;;;5.38;1.83;;;8.50;93.80;;;;;;4248687;27;20294;-58
2023/10/17 00:24:31;;;;;;;3.97;2.05;;;8.40;94.00;;;;;;4248464;27;20047;-58
2023/10/17 00:26:33;;;;;;;4.57;1.92;;;8.40;94.00;;;;;;4248370;27;20058;-56
2023/10/17 00:28:35;;;;;;;6.78;2.30;;;8.40;94.10;;;;;;4249381;27;20053;-58
2023/10/17 00:30:38;;;;;;;8.73;1.90;;;8.40;94.10;;;;;;4248474;27;20489;-58
2023/10/17 00:32:42;;;;;;;6.00;2.85;;;8.30;94.20;;;;;;4248398;27;20044;-58
2023/10/17 00:34:46;;;;;;;5.13;2.45;;;8.40;94.20;;;;;;4248707;27;20047;-56
2023/10/17 00:36:50;;;;;;;6.30;2.20;;;8.30;94.10;;;;;;4248630;27;20039;-56
2023/10/17 00:38:54;;;;;;;5.82;1.98;;;8.30;94.30;;;;;;4248444;27;20405;-56
2023/10/17 00:40:56;;;;;;;7.00;2.15;;;8.30;94.30;;;;;;4248318;27;20051;-56
2023/10/17 00:42:59;;;;;;;6.57;2.40;;;8.20;94.40;;;;;;4247926;27;20043;-58
2023/10/17 00:45:08;;;;;;;5.95;2.45;;;8.20;94.40;;;;;;4248297;27;20047;-59
2023/10/17 00:47:13;;;;;;;7.10;1.95;;;8.20;94.40;;;;;;4248106;27;20119;-59
2023/10/17 00:49:15;;;;;;;6.63;2.40;;;8.20;94.50;;;;;;4248250;27;20050;-59
2023/10/17 00:51:21;;;;;;;6.30;2.08;;;8.20;94.50;;;;;;4248254;27;20127;-59
2023/10/17 00:53:28;;;;;;;4.90;1.90;;;8.10;94.60;;;;;;4247814;27;20043;-59
2023/10/17 00:55:30;;;;;;;5.68;2.30;;;8.10;94.70;;;;;;4248066;27;20082;-58
2023/10/17 00:57:36;;;;;;;5.53;2.13;;;8.10;94.80;;;;;;4247989;27;20072;-56
2023/10/17 00:59:44;;;;;;;8.85;2.20;;;8.10;94.80;;;;;;4248303;27;20053;-59
2023/10/17 01:01:48;;;;;;;3.65;2.08;;;8.10;94.60;;;;;;4247905;27;20047;-57
2023/10/17 01:03:54;;;;;;;8.52;2.40;;;8.10;94.60;;;;;;4247977;27;20130;-58
2023/10/17 01:06:13;;;;;;;5.15;1.80;;;8.00;94.80;;;;;;4248008;27;20050;-59
2023/10/17 01:08:16;;;;;;;7.30;2.30;;;8.00;94.80;;;;;;4249641;27;20058;-58
2023/10/17 01:10:24;;;;;;;4.07;1.92;;;8.00;94.80;;;;;;4231059;28;20071;-58
2023/10/17 01:12:30;;;;;;;5.97;2.03;;;8.10;94.80;;;;;;4249065;27;20133;-59
2023/10/17 01:14:32;;;;;;;5.10;1.98;;;8.10;94.80;;;;;;4248480;27;20112;-60
2023/10/17 01:16:34;;;;;;;3.33;2.00;;;8.10;94.70;;;;;;4248322;27;20051;-58
2023/10/17 01:18:44;;;;;;;11.32;2.00;;;8.10;94.80;;;;;;4248158;27;20484;-59
2023/10/17 01:20:46;;;;;;;6.90;1.90;;;8.10;94.70;;;;;;4248045;27;20062;-58
2023/10/17 01:22:55;;;;;;;4.70;1.70;;;8.10;94.80;;;;;;4248137;27;20043;-58
2023/10/17 01:25:07;;;;;;;10.20;2.30;;;8.10;94.70;;;;;;4248133;27;20409;-58
2023/10/17 01:27:12;;;;;;;6.40;2.25;;;8.10;94.80;;;;;;4248288;27;20435;-59
2023/10/17 01:29:14;;;;;;;6.10;2.08;;;8.00;94.90;;;;;;4248112;27;20051;-60
2023/10/17 01:31:26;;;;;;;6.25;1.90;;;8.00;95.00;;;;;;4247914;27;20082;-58
2023/10/17 01:33:29;;;;;;;6.45;2.00;;;7.90;95.00;;;;;;4247965;28;20049;-59
2023/10/17 01:35:44;;;;;;;5.90;2.03;;;8.00;95.00;;;;;;4247584;28;20058;-58
2023/10/17 01:37:46;;;;;;;3.23;1.10;;;8.00;95.20;;;;;;4247634;28;20073;-59
2023/10/17 01:39:48;;;;;;;3.28;1.70;;;8.00;95.10;;;;;;4247206;28;20515;-58
2023/10/17 01:41:53;;;;;;;6.10;1.85;;;8.00;95.10;;;;;;4247493;28;20051;-59
2023/10/17 01:43:55;;;;;;;9.68;1.90;;;8.00;95.10;;;;;;4247695;28;20051;-56
2023/10/17 01:45:57;;;;;;;4.38;2.10;;;8.00;94.90;;;;;;4247679;28;20638;-57
2023/10/17 01:48:00;;;;;;;5.60;1.98;;;8.10;94.80;;;;;;4247662;28;20500;-57
2023/10/17 01:50:04;;;;;;;4.90;2.10;;;8.10;94.70;;;;;;4247842;28;20043;-57
2023/10/17 01:52:08;;;;;;;3.17;1.27;;;8.10;94.70;;;;;;4247534;28;20410;-56
2023/10/17 01:54:15;;;;;;;4.93;2.10;;;8.00;94.70;;;;;;4247221;28;20407;-56
2023/10/17 01:56:20;;;;;;;5.97;2.42;;;8.00;94.70;;;;;;4250369;28;20051;-59
2023/10/17 01:58:24;;;;;;;6.18;2.40;;;8.00;94.70;;;;;;4252354;28;20153;-57
2023/10/17 02:00:38;;;;;;;4.20;2.40;;;8.00;94.70;;;;;;4252428;28;20051;-60
2023/10/17 02:02:42;;;;;;;8.73;2.60;;;8.00;94.70;;;;;;4249895;28;20087;-56
2023/10/17 02:04:47;;;;;;;4.95;1.95;;;7.90;94.70;;;;;;4247738;28;20431;-56
2023/10/17 02:06:50;;;;;;;7.15;2.45;;;7.90;94.70;;;;;;4247438;28;20458;-56
2023/10/17 02:08:54;;;;;;;6.40;2.20;;;7.90;94.70;;;;;;4247335;28;20054;-58
2023/10/17 02:10:56;;;;;;;6.47;2.17;;;7.90;94.80;;;;;;4247660;28;20104;-56
2023/10/17 02:13:00;;;;;;;3.85;2.15;;;7.90;94.80;;;;;;4228870;28;20044;-55
2023/10/17 02:15:06;;;;;;;3.85;2.40;;;7.90;94.90;;;;;;4247294;28;20043;-57
2023/10/17 02:17:09;;;;;;;4.15;2.40;;;7.80;94.80;;;;;;4247445;27;20401;-59
2023/10/17 02:19:11;;;;;;;3.70;2.33;;;7.80;95.00;;;;;;4247021;28;20047;-58
2023/10/17 02:21:13;;;;;;;7.60;2.63;;;7.70;95.10;;;;;;4247249;28;20047;-59
2023/10/17 02:23:19;;;;;;;8.73;2.75;;;7.80;95.10;;;;;;4246798;28;20135;-58
2023/10/17 02:25:21;;;;;;;5.80;2.47;;;7.70;95.10;;;;;;4246985;28;20088;-58
2023/10/17 02:27:26;;;;;;;4.43;2.35;;;7.70;95.10;;;;;;4247163;28;20039;-57
2023/10/17 02:29:31;;;;;;;6.97;2.80;;;7.70;95.10;;;;;;4247426;28;20467;-58
2023/10/17 02:31:34;;;;;;;6.03;2.40;;;7.70;95.10;;;;;;4247365;28;20126;-58
2023/10/17 02:33:41;;;;;;;4.65;2.55;;;7.70;95.20;;;;;;4247070;28;20038;-58
2023/10/17 02:35:53;;;;;;;5.45;2.60;;;7.70;95.20;;;;;;4246825;28;20070;-58
2023/10/17 02:37:59;;;;;;;7.03;3.22;;;7.70;95.60;;;;;;4246684;28;20047;-58
2023/10/17 02:40:16;;;;;;;4.60;2.30;;;7.60;95.40;;;;;;4248831;27;20039;-58
2023/10/17 02:42:18;;;;;;;4.75;2.50;;;7.60;95.40;;;;;;4250343;27;20043;-58
2023/10/17 02:44:21;;;;;;;6.15;2.45;;;7.60;95.40;;;;;;4250564;27;20521;-58
2023/10/17 02:46:26;;;;;;;15.70;2.78;;;7.60;95.30;;;;;;4250279;27;20051;-58
2023/10/17 02:48:37;;;;;;;6.43;2.75;;;7.60;95.40;;;;;;4250176;27;20055;-58
2023/10/17 02:52:42;;;;;;;5.32;2.40;;;7.60;95.40;;;;;;4249872;27;20053;-58
2023/10/17 02:54:56;;;;;;;4.63;2.28;;;7.60;95.40;;;;;;4250066;27;20047;-58
2023/10/17 02:57:00;;;;;;;5.63;2.72;;;7.60;95.40;;;;;;4250123;27;20459;-58
2023/10/17 03:01:08;;;;;;;5.50;2.50;;;7.60;95.50;;;;;;4250039;27;20082;-58
2023/10/17 03:03:13;;;;;;;6.80;3.03;;;7.50;95.60;;;;;;4249761;27;20050;-57
2023/10/17 03:05:18;;;;;;;4.55;2.83;;;7.50;95.60;;;;;;4249686;27;20050;-58
2023/10/17 03:07:21;;;;;;;5.28;2.50;;;7.50;95.70;;;;;;4249439;27;20047;-57
2023/10/17 03:11:47;;;;;;;6.38;2.85;;;7.40;95.80;;;;;;4250000;27;20047;-57
2023/10/17 03:13:49;;;;;;;5.38;2.75;;;7.40;95.90;;;;;;4249465;27;20055;-56
2023/10/17 03:15:57;;;;;;;7.95;2.67;;;7.40;95.90;;;;;;4249802;27;20047;-57
2023/10/17 03:18:02;;;;;;;10.77;2.92;;;7.50;95.80;;;;;;4249714;27;20050;-57
2023/10/17 03:20:08;;;;;;;5.32;2.40;;;7.40;95.80;;;;;;4249639;27;20126;-59
2023/10/17 03:22:27;;;;;;;3.35;2.35;;;7.40;96.00;;;;;;4250385;27;20043;-60
2023/10/17 03:24:38;;;;;;;6.07;2.67;;;7.40;96.00;;;;;;4250169;27;20070;-60
2023/10/17 03:26:42;;;;;;;5.50;2.78;;;7.40;96.00;;;;;;4231634;28;20054;-59
2023/10/17 03:28:48;;;;;;;4.70;2.88;;;7.30;96.00;;;;;;4231269;28;20471;-58
2023/10/17 03:30:51;;;;;;;9.52;2.78;;;7.30;96.10;;;;;;4249411;27;20039;-59
2023/10/17 03:35:03;;;;;;;7.47;3.03;;;7.40;96.00;;;;;;4249268;27;20050;-59
2023/10/17 03:39:28;;;;;;;7.57;3.20;;;7.40;96.00;;;;;;4249394;27;20043;-58
2023/10/17 03:41:30;;;;;;;7.55;2.85;;;7.40;96.10;;;;;;4249416;27;20039;-58
2023/10/17 03:43:38;;;;;;;7.90;3.00;;;7.40;95.90;;;;;;4249118;27;20045;-57
2023/10/17 03:45:43;;;;;;;10.27;2.97;;;7.40;95.90;;;;;;4249073;27;20047;-59
2023/10/17 03:47:48;;;;;;;6.82;3.20;;;7.30;96.00;;;;;;4249091;27;20125;-59
2023/10/17 03:49:55;;;;;;;6.68;3.08;;;7.40;96.00;;;;;;4249339;27;20060;-56
2023/10/17 03:52:03;;;;;;;7.82;3.70;;;7.30;96.10;;;;;;4247917;27;20050;-57
2023/10/17 03:54:10;;;;;;;7.47;4.10;;;7.30;96.10;;;;;;4248737;27;20469;-57
2023/10/17 03:56:23;;;;;;;7.65;3.65;;;7.20;96.20;;;;;;4248475;27;20539;-56
2023/10/17 04:00:34;;;;;;;8.30;4.15;;;7.20;96.30;;;;;;4249113;27;20100;-58
2023/10/17 04:02:36;;;;;;;5.60;3.40;;;7.20;96.20;;;;;;4249165;27;20487;-56
2023/10/17 04:04:47;;;;;;;9.63;3.55;;;7.10;96.30;;;;;;4248652;27;20046;-55
2023/10/17 04:06:51;;;;;;;8.70;3.90;;;7.20;96.30;;;;;;4249051;27;20047;-56
2023/10/17 04:13:34;;;;;;;9.75;3.63;;;7.10;96.40;;;;;;4248852;27;20412;-58
2023/10/17 04:15:42;;;;;;;8.68;3.22;;;7.10;96.30;;;;;;4248893;27;20092;-58
2023/10/17 04:17:46;;;;;;;11.50;3.70;;;7.20;96.40;;;;;;4249537;27;20047;-59
2023/10/17 04:19:48;;;;;;;6.22;3.13;;;7.10;96.40;;;;;;4248839;27;20100;-58
2023/10/17 04:24:05;;;;;;;7.32;3.78;;;7.20;96.40;;;;;;4249908;27;20051;-59
2023/10/17 04:26:07;;;;;;;7.00;3.35;;;7.20;96.30;;;;;;4250224;27;20047;-58
2023/10/17 04:28:16;;;;;;;3.78;2.65;;;7.20;96.40;;;;;;4249294;27;20135;-58
2023/10/17 04:30:22;;;;;;;6.30;3.22;;;7.20;96.30;;;;;;4248973;27;20043;-58
2023/10/17 04:32:29;;;;;;;6.95;3.00;;;7.20;96.20;;;;;;4248465;27;20076;-58
2023/10/17 04:34:32;;;;;;;8.77;3.03;;;7.20;96.30;;;;;;4248123;27;20130;-58
2023/10/17 04:36:37;;;;;;;9.52;3.17;;;7.10;96.20;;;;;;4248357;27;20075;-58
2023/10/17 04:38:42;;;;;;;7.63;3.33;;;7.10;96.30;;;;;;4248658;27;20046;-58
2023/10/17 04:40:54;;;;;;;3.30;1.97;;;7.10;96.50;;;;;;4249280;27;20138;-58
2023/10/17 04:45:20;;;;;;;8.70;3.10;;;7.10;96.50;;;;;;4195749;28;20127;-58
2023/10/17 04:49:24;;;;;;;8.15;3.00;;;7.00;96.40;;;;;;4195328;28;20135;-58
2023/10/17 04:51:31;;;;;;;12.15;3.70;;;7.00;96.50;;;;;;4195805;28;20048;-56
2023/10/17 04:53:38;;;;;;;6.50;3.47;;;7.00;96.50;;;;;;4195527;28;20049;-56
2023/10/17 04:55:40;;;;;;;7.15;3.17;;;7.00;96.60;;;;;;4195435;28;20044;-56
2023/10/17 05:00:24;;;;;;;7.20;3.47;;;7.00;96.60;;;;;;4178833;28;20063;-56
2023/10/17 05:02:41;;;;;;;6.93;3.50;;;6.90;96.70;;;;;;4178224;28;20049;-57
2023/10/17 05:09:12;;;;;;;8.55;3.38;;;6.80;96.80;;;;;;4180071;28;20094;-58
2023/10/17 06:17:13;;;;;;;10.35;3.63;;;6.70;97.00;;;;;;4235557;27;20047;-59
2023/10/17 06:19:16;;;;;;;11.75;4.30;;;6.70;97.10;;;;;;4267818;27;20159;-58
2023/10/17 06:21:35;;;;;;;14.38;4.10;;;6.80;97.10;;;;;;4267917;27;20122;-58
2023/10/17 06:26:22;;;;;;;16.10;3.53;;;6.90;97.00;;;;;;4181387;28;20505;-59
2023/10/17 06:28:34;;;;;;;12.02;4.32;;;6.80;97.10;;;;;;4181351;28;20049;-59
2023/10/17 06:31:34;;;;;;;11.25;4.63;;;6.90;97.00;;;;;;4180846;28;20071;-58
2023/10/17 06:33:19;;;;;;;15.68;4.10;;;6.80;97.00;;;;;;4181179;28;20048;-58
2023/10/17 06:35:23;;;;;;;11.95;4.07;;;6.70;97.10;;;;;;4181280;28;20048;-58
2023/10/17 06:37:32;;;;;;;12.52;4.30;;;6.70;97.10;;;;;;4180821;28;20140;-58
2023/10/17 06:39:45;;;;;;;11.45;4.22;;;6.80;97.10;;;;;;4181139;28;20124;-58
2023/10/17 06:41:48;;;;;;;17.55;4.18;;;6.80;97.30;;;;;;4180987;28;20056;-58
2023/10/17 06:43:54;;;;;;;9.50;4.55;;;6.80;97.20;;;;;;4180774;28;20163;-58
2023/10/17 06:46:06;;;;;;;14.73;4.15;;;6.90;97.40;;;;;;4181037;28;20052;-58
2023/10/17 06:48:08;;;;;;;13.38;4.90;;;7.00;97.10;;;;;;4181468;28;20537;-60
2023/10/17 06:54:25;;;;;;;12.57;4.07;;;7.10;96.70;;;;;;4181126;28;20511;-58
2023/10/17 06:56:41;;;;;;;11.18;3.85;;;7.10;97.00;;;;;;4180936;28;20132;-58
2023/10/17 06:58:44;;;;;;;15.63;4.95;;;7.10;96.80;;;;;;4180830;28;20045;-59
2023/10/17 07:00:52;;;;;;;10.18;3.97;;;7.10;96.70;;;;;;4180788;28;20102;-58
2023/10/17 07:02:57;;;;;;;15.82;5.22;;;7.20;96.50;;;;;;4197034;27;20119;-59
2023/10/17 07:05:01;;;;;;;16.63;4.90;;;7.30;96.30;;;;;;4267125;27;20163;-57
2023/10/17 07:07:04;;;;;;;14.40;4.80;;;7.30;96.40;;;;;;4267200;27;20047;-58
2023/10/17 07:09:16;;;;;;;11.77;4.97;;;7.30;96.20;;;;;;4267353;27;20047;-58
2023/10/17 07:14:10;;;;;;;16.20;4.70;;;7.40;96.30;;;;;;4267055;27;20047;-58
2023/10/17 07:16:12;;;;;;;23.20;4.88;;;7.50;96.00;;;;;;4267044;27;20046;-58
2023/10/17 07:23:19;;;;;;;20.88;5.38;;;7.50;96.00;;;;;;4197278;28;20122;-56
2023/10/17 07:25:21;;;;;;;10.15;4.90;;;7.50;95.90;;;;;;4196833;28;20453;-57
2023/10/17 07:27:27;;;;;;;16.63;4.82;;;7.60;95.90;;;;;;4196765;28;20440;-56
2023/10/17 07:29:34;;;;;;;18.17;4.60;;;7.60;95.90;;;;;;4197160;28;20446;-56
2023/10/17 07:31:37;;;;;;;12.90;4.88;;;7.70;95.70;;;;;;4197117;28;20064;-55
2023/10/17 07:33:42;;;;;;;13.88;4.57;;;7.70;95.70;;;;;;4196709;28;20130;-58
2023/10/17 07:35:44;;;;;;;22.95;5.30;;;7.80;95.70;;;;;;4196712;28;20068;-59
2023/10/17 07:37:54;;;;;;;16.38;4.50;;;7.80;95.50;;;;;;4196591;28;20045;-56
2023/10/17 07:40:16;;;;;;;15.40;5.10;;;7.80;95.80;;;;;;4196517;28;20508;-56
2023/10/17 07:42:29;;;;;;;26.27;5.35;;;8.00;95.50;;;;;;4196393;28;20055;-58
2023/10/17 07:44:34;;;;;;;19.67;4.97;;;8.00;95.20;;;;;;4196505;28;20486;-58
2023/10/17 07:46:38;;;;;;;20.08;4.45;;;8.00;95.30;;;;;;4196675;28;20041;-58
2023/10/17 07:48:40;;;;;;;10.82;4.38;;;8.10;95.40;;;;;;4196606;28;20151;-59
2023/10/17 07:50:42;;;;;;;10.00;4.95;;;8.10;95.10;;;;;;4196660;28;20131;-59
2023/10/17 07:52:50;;;;;;;12.43;4.78;;;8.00;95.10;;;;;;4196207;28;20049;-58
2023/10/17 07:54:55;;;;;;;16.77;5.15;;;8.00;95.30;;;;;;4196511;28;20119;-59
2023/10/17 07:56:58;;;;;;;10.88;4.88;;;8.10;95.20;;;;;;4196168;28;20063;-58
2023/10/17 07:59:08;;;;;;;14.68;4.40;;;8.10;95.00;;;;;;4220891;27;20068;-55
2023/10/17 08:01:16;;;;;;;13.20;4.57;;;8.10;95.00;;;;;;4249344;27;20043;-54
2023/10/17 08:03:19;;;;;;;10.65;4.25;;;8.10;95.10;;;;;;4249391;27;20078;-56
2023/10/17 08:05:23;;;;;;;11.52;4.00;;;8.10;95.20;;;;;;4249133;27;20047;-57
2023/10/17 08:07:25;;;;;;;19.60;4.63;;;8.20;95.10;;;;;;4248930;27;20504;-59
2023/10/17 08:09:36;;;;;;;17.38;4.53;;;8.30;95.20;;;;;;4249066;27;20439;-58
2023/10/17 08:11:42;;;;;;;7.18;3.35;;;8.30;94.80;;;;;;4248665;27;20046;-59
2023/10/17 08:13:45;;;;;;;9.30;3.90;;;8.40;94.80;;;;;;4248691;27;20217;-57
2023/10/17 08:15:53;;;;;;;9.43;4.32;;;8.30;94.80;;;;;;4248648;27;20096;-60
2023/10/17 08:18:01;;;;;;;16.35;4.68;;;8.40;94.80;;;;;;4248544;27;20050;-59
2023/10/17 08:22:17;;;;;;;14.50;4.30;;;8.30;94.90;;;;;;4249027;27;20454;-59
2023/10/17 08:24:26;;;;;;;10.15;4.47;;;8.50;94.70;;;;;;4248827;27;20424;-58
2023/10/17 08:26:31;;;;;;;11.80;4.30;;;8.50;94.60;;;;;;4248414;27;20055;-60
2023/10/17 08:28:46;;;;;;;15.00;4.57;;;8.60;94.50;;;;;;4249174;27;20047;-64
2023/10/17 08:30:51;;;;;;;14.18;4.25;;;8.60;94.50;;;;;;4249168;27;20055;-67
2023/10/17 08:33:11;;;;;;;12.30;4.55;;;8.60;94.40;;;;;;4252534;27;20382;-60
2023/10/17 08:35:26;;;;;;;10.38;4.20;;;8.70;94.50;;;;;;4252493;27;20192;-68
2023/10/17 08:37:39;;;;;;;11.32;4.10;;;8.70;94.40;;;;;;4252174;27;20084;-58
2023/10/17 08:41:51;;;;;;;13.70;4.40;;;8.90;94.20;;;;;;4248631;27;20397;-60
2023/10/17 08:43:54;;;;;;;9.73;4.40;;;9.00;94.10;;;;;;4248436;27;20066;-58
2023/10/17 08:45:58;;;;;;;9.70;4.13;;;9.00;94.10;;;;;;4248211;27;20054;-58
2023/10/17 08:48:00;;;;;;;12.73;4.38;;;9.10;94.20;;;;;;4248683;27;20047;-59
2023/10/17 08:50:05;;;;;;;12.90;4.80;;;9.10;93.90;;;;;;4248700;27;20069;-59
2023/10/17 08:52:19;;;;;;;23.95;5.50;;;9.20;93.90;;;;;;4248303;27;20501;-59
2023/10/17 08:54:22;;;;;;;20.27;5.07;;;9.20;93.80;;;;;;4249346;27;20046;-59
2023/10/17 08:56:28;;;;;;;14.40;4.82;;;9.20;93.90;;;;;;4250971;27;20058;-64
2023/10/17 08:58:32;;;;;;;15.77;4.95;;;9.30;93.90;;;;;;4233074;27;20059;-59
2023/10/17 09:02:55;;;;;;;18.38;4.97;;;9.30;93.70;;;;;;4248667;27;20051;-60
2023/10/17 09:05:05;;;;;;;17.17;4.80;;;9.40;93.70;;;;;;4248510;27;20096;-58
2023/10/17 09:07:09;;;;;;;12.82;5.13;;;9.40;93.70;;;;;;4248263;27;20070;-59
2023/10/17 09:09:21;;;;;;;20.85;5.43;;;9.50;93.70;;;;;;4247732;27;20108;-58
2023/10/17 09:11:34;;;;;;;10.48;4.47;;;9.60;93.90;;;;;;4229890;27;20139;-59
2023/10/17 09:15:56;;;;;;;10.70;4.57;;;9.70;93.50;;;;;;4247783;27;20521;-60
2023/10/17 09:18:07;;;;;;;8.32;4.30;;;9.70;93.50;;;;;;4247521;27;20113;-67
2023/10/17 09:20:16;;;;;;;14.98;4.85;;;9.70;93.40;;;;;;4246986;27;20043;-58
2023/10/17 09:22:36;;;;;;;16.50;4.68;;;9.80;93.30;;;;;;4247925;27;20122;-58
2023/10/17 09:24:40;;;;;;;14.95;5.47;;;9.90;93.30;;;;;;4247347;27;20043;-60
2023/10/17 09:26:44;;;;;;;18.10;5.05;;;10.00;93.40;;;;;;4247740;27;20039;-61
2023/10/17 09:28:47;;;;;;;10.48;3.78;;;10.00;93.20;;;;;;4229511;28;20058;-60
2023/10/17 09:30:57;;;;;;;18.02;4.95;;;10.10;93.20;;;;;;4246817;27;20047;-61
2023/10/17 09:33:01;;;;;;;8.85;4.47;;;10.20;93.10;;;;;;4247791;27;20047;-60
2023/10/17 09:35:16;;;;;;;15.90;4.90;;;10.20;93.00;;;;;;4247743;27;20047;-61
2023/10/17 09:37:19;;;;;;;17.58;5.07;;;10.30;93.00;;;;;;4247555;27;20047;-62
2023/10/17 09:39:27;;;;;;;15.27;5.03;;;10.40;92.80;;;;;;4246597;27;20046;-60
2023/10/17 09:41:39;;;;;;;11.82;5.10;;;10.40;92.90;;;;;;4247676;27;20493;-61
2023/10/17 09:43:41;;;;;;;15.27;4.55;;;10.50;92.80;;;;;;4229251;28;20487;-61
2023/10/17 09:45:49;;;;;;;15.15;4.82;;;10.50;93.10;;;;;;4247504;28;20039;-61
2023/10/17 09:47:53;;;;;;;9.80;4.32;;;10.60;92.70;;;;;;4247464;28;20055;-61
2023/10/17 09:49:59;;;;;;;15.93;4.50;;;10.60;92.60;;;;;;4249259;27;20100;-61
2023/10/17 09:52:09;;;;;;;11.45;4.85;;;10.70;92.60;;;;;;4250843;27;20063;-61
2023/10/17 09:54:14;;;;;;;8.88;4.57;;;10.80;92.40;;;;;;4250542;27;20463;-61
2023/10/17 09:56:21;;;;;;;10.43;4.30;;;10.80;92.50;;;;;;4250902;27;20124;-60
2023/10/17 09:58:28;;;;;;;12.65;4.32;;;10.90;92.40;;;;;;4251127;27;20412;-61
2023/10/17 10:00:38;;;;;;;15.25;4.40;;;10.90;92.40;;;;;;4251110;27;20075;-60
2023/10/17 10:02:43;;;;;;;10.07;4.30;;;11.00;92.50;;;;;;4250790;27;20042;-61
2023/10/17 10:04:46;;;;;;;18.10;4.68;;;11.20;92.40;;;;;;4251065;27;20039;-59
2023/10/17 10:06:49;;;;;;;12.73;4.50;;;11.30;92.10;;;;;;4250826;27;20100;-63
2023/10/17 10:08:55;;;;;;;17.00;5.18;;;11.30;92.00;;;;;;4251311;27;20051;-61
2023/10/17 10:10:59;;;;;;;11.15;5.15;;;11.30;92.10;;;;;;4251249;27;20104;-61
2023/10/17 10:13:07;;;;;;;22.00;5.93;;;11.30;91.90;;;;;;4251794;27;20053;-60
2023/10/17 10:15:47;;;;;;;10.07;4.57;;;11.40;92.00;;;;;;4234310;27;20044;-59
2023/10/17 10:17:51;;;;;;;10.55;4.68;;;11.40;91.70;;;;;;4264241;27;20047;-60
2023/10/17 10:20:04;;;;;;;9.30;4.55;;;11.40;91.80;;;;;;4267967;27;20051;-60
2023/10/17 10:22:07;;;;;;;8.65;4.15;;;11.40;91.80;;;;;;4267680;27;20048;-62
2023/10/17 10:24:17;;;;;;;13.55;4.40;;;11.40;91.90;;;;;;4267901;27;20380;-60
2023/10/17 10:26:22;;;;;;;14.05;4.78;;;11.50;91.90;;;;;;4267133;27;20051;-60
2023/10/17 10:28:29;;;;;;;9.10;4.07;;;11.60;91.80;;;;;;4267632;27;20043;-61
2023/10/17 10:30:43;;;;;;;16.98;4.65;;;11.60;91.70;;;;;;4267686;27;20050;-61
2023/10/17 10:32:46;;;;;;;9.90;4.53;;;11.70;91.80;;;;;;4267337;27;20038;-60
2023/10/17 10:34:48;;;;;;;7.72;4.13;;;11.70;91.80;;;;;;4267903;27;20546;-60
2023/10/17 10:36:51;;;;;;;17.23;4.57;;;11.90;91.90;;;;;;4267394;27;20129;-63
2023/10/17 10:38:54;;;;;;;10.20;4.75;;;12.00;91.70;;;;;;4267081;27;20042;-62
2023/10/17 10:41:04;;;;;;;10.07;4.22;;;12.00;91.60;;;;;;4267418;27;20491;-60
2023/10/17 10:43:18;;;;;;;14.38;4.93;;;12.00;91.60;;;;;;4267429;27;20050;-61
2023/10/17 10:45:35;;;;;;;9.15;4.55;;;12.00;91.50;;;;;;4267922;27;20046;-61
2023/10/17 10:47:38;;;;;;;12.25;4.45;;;12.10;91.70;;;;;;4269227;27;20153;-61
2023/10/17 10:49:41;;;;;;;10.93;4.75;;;12.10;91.60;;;;;;4249032;27;20047;-61
2023/10/17 10:51:47;;;;;;;12.88;5.15;;;12.20;91.60;;;;;;4266854;27;20501;-61
2023/10/17 10:53:56;;;;;;;7.63;4.00;;;12.20;91.40;;;;;;4267294;27;20039;-61
2023/10/17 10:55:59;;;;;;;15.40;4.50;;;12.20;91.50;;;;;;4248618;27;20051;-61
2023/10/17 10:58:03;;;;;;;15.77;4.10;;;12.30;91.70;;;;;;4267328;27;20483;-59
2023/10/17 11:00:08;;;;;;;14.70;3.92;;;12.40;91.60;;;;;;4264239;27;20047;-59
2023/10/17 11:02:13;;;;;;;8.43;4.00;;;12.40;91.60;;;;;;4248436;27;20136;-60
2023/10/17 11:04:16;;;;;;;14.00;4.10;;;12.50;91.30;;;;;;4266917;27;20038;-59
2023/10/17 11:06:23;;;;;;;15.20;3.72;;;12.50;91.40;;;;;;4266249;27;20047;-60
2023/10/17 11:08:35;;;;;;;18.02;4.63;;;12.50;91.50;;;;;;4260893;27;20103;-57
2023/10/17 11:10:39;;;;;;;14.30;4.82;;;12.60;91.40;;;;;;4263565;27;20039;-58
2023/10/17 11:12:53;;;;;;;18.63;4.30;;;12.50;91.40;;;;;;4256030;27;20042;-59
2023/10/17 11:15:26;;;;;;;9.25;3.78;;;12.70;91.60;;;;;;4266804;27;20480;-59
2023/10/17 11:17:31;;;;;;;12.20;4.05;;;12.70;91.60;;;;;;4260027;27;20107;-60
2023/10/17 11:19:34;;;;;;;11.18;4.05;;;12.70;91.50;;;;;;4265974;27;20051;-60
2023/10/17 11:21:37;;;;;;;16.45;4.20;;;12.80;91.60;;;;;;4266464;27;20057;-58
2023/10/17 11:23:40;;;;;;;18.30;4.05;;;12.80;91.60;;;;;;4260884;27;20152;-59
2023/10/17 11:25:47;;;;;;;7.50;3.70;;;12.90;91.50;;;;;;4260602;27;20384;-58
2023/10/17 11:27:53;;;;;;;8.50;3.85;;;13.00;91.50;;;;;;4263755;27;20074;-57
2023/10/17 11:29:59;;;;;;;13.48;3.90;;;13.10;91.50;;;;;;4259587;27;20042;-61
2023/10/17 11:32:13;;;;;;;7.55;3.92;;;13.20;91.30;;;;;;4253928;27;20035;-60
2023/10/17 11:34:16;;;;;;;;;;;13.20;91.30;;;;;;4260606;27;20074;-62
2023/10/17 11:36:20;;;;;;;17.88;3.83;;;13.30;91.10;;;;;;4256051;27;19927;-59
2023/10/17 11:38:34;;;;;;;9.50;3.45;;;13.30;91.40;;;;;;4255870;27;20055;-60
2023/10/17 11:40:47;;;;;;;6.45;3.42;;;13.40;91.30;;;;;;4266041;27;20043;-64
2023/10/17 11:42:49;;;;;;;12.23;3.55;;;13.30;91.10;;;;;;4264589;27;20050;-59
2023/10/17 11:44:54;;;;;;;10.48;4.07;;;13.40;91.20;;;;;;4265515;27;20465;-58
2023/10/17 11:47:03;;;;;;;27.70;4.35;;;13.50;91.10;;;;;;4261534;27;20069;-59
2023/10/17 11:49:34;;;;;;;14.32;4.53;;;13.60;91.20;;;;;;4253373;27;20361;-67
2023/10/17 11:51:36;;;;;;;12.00;3.88;;;13.60;91.00;;;;;;4268537;27;20537;-59
2023/10/17 11:54:05;;;;;;;12.45;4.13;;;13.60;91.10;;;;;;4269143;27;20103;-60
2023/10/17 11:56:20;;;;;;;14.20;3.92;;;13.70;90.90;;;;;;4260913;27;20051;-59
2023/10/17 11:58:25;;;;;;;16.40;3.53;;;13.70;91.10;;;;;;4257186;27;20043;-58
2023/10/17 12:00:28;;;;;;;;;;;13.70;91.00;;;;;;4256314;27;20598;-58
2023/10/17 12:02:31;;;;;;;17.25;4.20;;;13.70;91.20;;;;;;4263605;27;20039;-57
2023/10/17 12:04:36;;;;;;;20.73;4.00;;;13.80;91.30;;;;;;4242727;27;20146;-56
2023/10/17 12:06:40;;;;;;;14.43;3.70;;;13.90;91.30;;;;;;4261834;27;20056;-59
2023/10/17 12:08:44;;;;;;;20.58;4.30;;;14.00;91.20;;;;;;4263513;27;20066;-59
2023/10/17 12:10:48;;;;;;;10.90;3.65;;;14.10;91.20;;;;;;4262187;27;20050;-59
2023/10/17 12:13:04;;;;;;;12.93;3.67;;;14.20;91.20;;;;;;4252917;27;20038;-56
2023/10/17 12:15:07;;;;;;;9.23;3.10;;;14.30;91.00;;;;;;4264852;27;20129;-59
2023/10/17 12:17:18;;;;;;;6.97;3.28;;;14.30;90.70;;;;;;4260127;27;20043;-59
2023/10/17 12:19:27;;;;;;;7.97;3.10;;;14.40;90.80;;;;;;4248233;27;20051;-60
2023/10/17 12:21:39;;;;;;;11.38;3.33;;;14.40;90.80;;;;;;4253384;27;20043;-59
2023/10/17 12:23:41;;;;;;;8.55;3.60;;;14.50;90.70;;;;;;4262656;27;20047;-59
2023/10/17 12:25:44;;;;;;;12.18;3.67;;;14.50;90.70;;;;;;4264484;27;20454;-59
2023/10/17 12:27:49;;;;;;;6.97;3.15;;;14.60;90.80;;;;;;4251570;27;20400;-61
2023/10/17 12:29:57;;;;;;;12.20;3.88;;;14.70;90.70;;;;;;4249826;27;20054;-59
2023/10/17 12:32:01;;;;;;;10.15;3.55;;;14.70;90.70;;;;;;4263715;27;20070;-61
2023/10/17 12:34:03;;;;;;;9.23;3.30;;;14.70;90.60;;;;;;4263598;27;20085;-57
2023/10/17 12:36:06;;;;;;;13.80;3.00;;;14.70;90.70;;;;;;4248361;27;20400;-60
2023/10/17 12:38:24;;;;;;;7.78;3.35;;;14.80;90.70;;;;;;4264823;27;20070;-61
2023/10/17 12:40:26;;;;;;;13.30;3.13;;;14.80;90.70;;;;;;4264642;27;20077;-57
2023/10/17 12:42:29;;;;;;;10.75;3.08;;;14.90;90.60;;;;;;4263007;27;20400;-60
2023/10/17 12:44:32;;;;;;;8.48;3.00;;;14.90;90.60;;;;;;4264627;27;20101;-59
2023/10/17 12:46:34;;;;;;;10.32;3.45;;;15.00;90.80;;;;;;4262618;27;20046;-60
2023/10/17 12:48:36;;;;;;;11.27;3.60;;;15.10;90.60;;;;;;4241470;27;20149;-56
2023/10/17 12:50:44;;;;;;;10.60;2.92;;;15.20;90.50;;;;;;4262307;27;20046;-57
2023/10/17 12:52:46;;;;;;;14.57;3.65;;;15.30;90.40;;;;;;4261179;27;20092;-56
2023/10/17 12:54:52;;;;;;;8.38;3.45;;;15.30;90.40;;;;;;4251962;27;20128;-60
2023/10/17 12:56:54;;;;;;;15.43;3.67;;;15.40;90.40;;;;;;4256958;27;20484;-57
2023/10/17 12:58:56;;;;;;;18.60;3.28;;;15.40;90.40;;;;;;4263698;27;20468;-57
2023/10/17 13:00:58;;;;;;;9.27;2.90;;;15.40;90.30;;;;;;4262653;27;20049;-60
2023/10/17 13:03:03;;;;;;;;;;;15.40;90.30;;;;;;4257692;27;20074;-59
2023/10/17 13:05:09;;;;;;;9.77;3.05;;;15.50;90.40;;;;;;4264363;27;20457;-59